Time;durP1;ratioP1;P1;durP2;ratioP2;P2;SDS_P1;SDS_P2;PMS_P1;PMS_P2;Temp;Humidity;BMP_temperature;BMP_pressure;BME280_temperature;BME280_humidity;BME280_pressure;Samples;Min_cycle;Max_cycle;Signal;HPM_P1;HPM_P2
2022/04/18 00:08:13;;;;;;;9.32;3.50;;;-0.30;99.90;;;;;;19821102;29;20117;-54
2022/04/18 00:18:15;;;;;;;7.85;4.10;;;-0.40;99.90;;;;;;19851291;29;20035;-53
2022/04/18 00:28:18;;;;;;;6.45;3.08;;;-0.50;99.90;;;;;;19854307;29;20100;-52
2022/04/18 00:38:21;;;;;;;6.97;3.38;;;-0.70;99.90;;;;;;19870620;29;20047;-51
2022/04/18 00:48:24;;;;;;;4.68;2.80;;;-0.70;99.90;;;;;;19802944;29;20453;-52
2022/04/18 00:58:28;;;;;;;6.47;3.17;;;-0.80;99.90;;;;;;19812272;29;20080;-53
2022/04/18 01:08:34;;;;;;;6.78;3.38;;;-0.80;99.90;;;;;;19840660;29;20096;-50
2022/04/18 01:18:38;;;;;;;10.93;3.10;;;-0.90;99.90;;;;;;19829410;29;20695;-54
2022/04/18 01:28:59;;;;;;;9.02;2.30;;;-1.10;99.90;;;;;;19828965;29;20039;-52
2022/04/18 01:39:03;;;;;;;5.53;2.83;;;-1.20;99.90;;;;;;19873767;29;20043;-50
2022/04/18 01:49:06;;;;;;;7.05;2.65;;;-1.20;99.90;;;;;;19873295;29;20078;-51
2022/04/18 01:59:09;;;;;;;5.32;2.60;;;-1.30;99.90;;;;;;19861189;29;20107;-55
2022/04/18 02:09:12;;;;;;;4.40;2.60;;;-1.40;99.90;;;;;;19872503;29;20096;-53
2022/04/18 02:19:14;;;;;;;7.20;2.92;;;-1.50;99.90;;;;;;19826249;29;20077;-52
2022/04/18 02:29:18;;;;;;;4.20;2.50;;;-1.70;99.90;;;;;;19840671;29;20554;-52
2022/04/18 02:39:20;;;;;;;6.95;3.05;;;-1.90;99.90;;;;;;19799770;29;20137;-52
2022/04/18 02:49:23;;;;;;;8.23;3.38;;;-2.10;99.90;;;;;;19810808;29;20044;-51
2022/04/18 02:59:26;;;;;;;8.02;3.40;;;-2.10;99.90;;;;;;19823632;29;20059;-51
2022/04/18 03:09:29;;;;;;;5.07;3.10;;;-2.00;99.90;;;;;;19813116;29;20123;-53
2022/04/18 03:19:32;;;;;;;6.10;3.33;;;-2.00;99.90;;;;;;19863287;29;20043;-51
2022/04/18 03:29:37;;;;;;;6.13;3.08;;;-2.00;99.90;;;;;;19818413;29;20097;-51
2022/04/18 03:39:52;;;;;;;4.55;2.65;;;-2.00;99.90;;;;;;19808528;29;20043;-54
2022/04/18 03:50:03;;;;;;;4.45;2.75;;;-2.10;99.90;;;;;;19807374;29;20074;-52
2022/04/18 04:00:11;;;;;;;4.90;3.30;;;-2.20;99.90;;;;;;19852613;29;20466;-55
2022/04/18 04:10:16;;;;;;;6.97;3.90;;;-2.20;99.90;;;;;;19837129;29;20097;-52
2022/04/18 04:20:21;;;;;;;5.57;3.25;;;-2.20;99.90;;;;;;19880036;29;20043;-51
2022/04/18 04:30:26;;;;;;;7.28;3.30;;;-2.30;99.90;;;;;;19878245;29;20070;-53
2022/04/18 04:40:37;;;;;;;5.03;2.90;;;-2.20;99.90;;;;;;19837396;29;20039;-54
2022/04/18 04:50:42;;;;;;;4.63;2.80;;;-2.20;99.90;;;;;;19813820;29;20046;-52
2022/04/18 05:00:46;;;;;;;5.40;2.95;;;-2.20;99.90;;;;;;19844433;29;20530;-49
2022/04/18 05:10:59;;;;;;;5.20;2.92;;;-2.10;99.90;;;;;;19802376;29;20051;-54
2022/04/18 05:21:11;;;;;;;5.93;3.08;;;-1.90;99.90;;;;;;19796387;29;20472;-54
2022/04/18 05:31:17;;;;;;;5.38;3.00;;;-1.80;99.90;;;;;;19800357;29;20124;-53
2022/04/18 05:41:20;;;;;;;6.40;3.30;;;-1.60;99.90;;;;;;19799504;29;20043;-51
2022/04/18 05:51:24;;;;;;;4.82;2.80;;;-1.50;99.90;;;;;;19800078;29;20404;-55
2022/04/18 06:01:28;;;;;;;4.93;2.70;;;-1.30;99.90;;;;;;19798295;29;20423;-54
2022/04/18 06:11:33;;;;;;;4.70;2.83;;;-1.10;99.90;;;;;;19798184;29;20043;-51
2022/04/18 06:21:48;;;;;;;8.40;2.60;;;-0.80;99.90;;;;;;19805315;29;20043;-52
2022/04/18 06:31:53;;;;;;;4.22;1.80;;;-0.50;99.90;;;;;;19797587;29;20067;-54
2022/04/18 06:42:00;;;;;;;2.60;1.85;;;1.20;99.90;;;;;;19827338;29;20454;-55
2022/04/18 06:52:10;;;;;;;3.45;1.73;;;3.80;99.90;;;;;;19787463;29;20089;-56
2022/04/18 07:02:50;;;;;;;4.35;1.70;;;4.70;98.10;;;;;;19787112;29;20087;-57
2022/04/18 07:12:53;;;;;;;3.78;1.20;;;5.80;98.00;;;;;;19786003;29;20724;-56
2022/04/18 07:22:56;;;;;;;1.75;1.23;;;7.30;95.40;;;;;;19801625;29;20135;-58
2022/04/18 07:33:04;;;;;;;2.40;1.55;;;8.60;93.50;;;;;;19863311;29;20511;-59
2022/04/18 07:43:09;;;;;;;3.83;1.23;;;8.80;92.30;;;;;;19882560;29;20399;-59
2022/04/18 07:53:12;;;;;;;2.28;1.48;;;9.50;93.10;;;;;;19858276;29;20050;-58
2022/04/18 08:03:17;;;;;;;2.45;1.70;;;9.70;91.90;;;;;;19831435;29;20137;-58
2022/04/18 08:13:29;;;;;;;3.80;1.83;;;9.80;90.90;;;;;;19851947;29;20035;-58
2022/04/18 08:23:55;;;;;;;2.15;1.63;;;10.00;90.90;;;;;;19705555;29;20120;-59
2022/04/18 08:34:36;;;;;;;3.53;1.50;;;10.50;92.10;;;;;;19706115;29;20119;-59
2022/04/18 08:44:43;;;;;;;3.20;1.73;;;11.10;88.70;;;;;;19705255;30;20091;-58
2022/04/18 08:54:47;;;;;;;4.28;1.40;;;11.10;90.30;;;;;;19726716;29;20102;-58
2022/04/18 09:04:52;;;;;;;3.65;1.50;;;11.30;88.90;;;;;;19824710;29;20040;-60
2022/04/18 09:14:55;;;;;;;6.90;1.55;;;11.80;90.90;;;;;;19812839;29;20128;-58
2022/04/18 09:25:12;;;;;;;3.30;1.65;;;12.00;88.80;;;;;;19785509;29;20047;-59
2022/04/18 09:35:15;;;;;;;2.90;1.75;;;12.10;86.30;;;;;;19799330;29;20039;-58
2022/04/18 09:45:27;;;;;;;3.10;2.10;;;12.20;85.40;;;;;;19814445;29;20457;-58
2022/04/18 09:55:30;;;;;;;3.55;2.15;;;12.30;87.50;;;;;;19797789;29;20059;-58
2022/04/18 10:05:34;;;;;;;3.53;2.05;;;12.60;88.20;;;;;;19865523;29;20042;-58
2022/04/18 10:15:38;;;;;;;2.60;2.00;;;12.80;89.50;;;;;;19842003;29;20495;-58
2022/04/18 10:25:43;;;;;;;3.60;2.60;;;13.20;85.80;;;;;;19874221;29;20424;-60
2022/04/18 10:35:52;;;;;;;3.55;2.13;;;13.30;84.70;;;;;;19831307;29;20502;-60
2022/04/18 10:46:18;;;;;;;2.30;2.00;;;13.10;84.90;;;;;;19880281;29;20100;-60
2022/04/18 10:56:21;;;;;;;6.32;2.03;;;13.10;84.10;;;;;;19886804;29;20396;-61
2022/04/18 11:06:24;;;;;;;3.58;1.63;;;12.90;84.40;;;;;;19885240;29;20047;-61
2022/04/18 11:16:26;;;;;;;8.23;2.28;;;13.30;83.20;;;;;;19815914;29;20055;-61
2022/04/18 11:26:29;;;;;;;4.18;1.92;;;13.80;81.40;;;;;;19809279;29;20058;-60
2022/04/18 11:36:34;;;;;;;2.95;1.80;;;13.80;85.60;;;;;;19815583;29;20035;-60
2022/04/18 11:46:38;;;;;;;4.25;1.77;;;13.60;81.30;;;;;;19811644;29;20039;-61
2022/04/18 11:56:41;;;;;;;2.60;1.90;;;13.50;80.60;;;;;;19817988;29;20139;-61
2022/04/18 12:06:47;;;;;;;3.45;2.05;;;13.60;81.90;;;;;;19859350;29;20104;-61
2022/04/18 12:16:50;;;;;;;4.30;2.10;;;13.90;85.50;;;;;;19803186;29;20123;-61
2022/04/18 12:26:53;;;;;;;3.40;1.90;;;14.10;82.20;;;;;;19804678;29;20546;-61
2022/04/18 12:37:00;;;;;;;4.45;2.70;;;14.10;80.00;;;;;;19810981;29;20042;-61
2022/04/18 12:47:21;;;;;;;5.88;2.78;;;14.40;82.70;;;;;;19824061;29;20128;-61
2022/04/18 12:57:23;;;;;;;5.93;3.05;;;14.00;83.80;;;;;;19872700;29;20112;-58
2022/04/18 13:07:26;;;;;;;5.53;3.03;;;14.10;83.50;;;;;;19841052;29;20069;-61
2022/04/18 13:17:32;;;;;;;3.92;2.65;;;14.30;82.60;;;;;;19832595;29;20038;-62
2022/04/18 13:27:37;;;;;;;5.47;2.83;;;14.30;81.90;;;;;;19833350;29;20043;-62
2022/04/18 13:37:40;;;;;;;5.53;2.90;;;14.40;82.00;;;;;;19818498;29;20123;-61
2022/04/18 13:47:47;;;;;;;4.43;3.05;;;14.20;81.00;;;;;;19800916;29;20076;-61
2022/04/18 13:57:50;;;;;;;5.00;2.83;;;14.20;80.70;;;;;;19802300;29;20055;-61
2022/04/18 14:07:54;;;;;;;3.97;2.67;;;14.00;77.70;;;;;;19800176;29;20093;-56
2022/04/18 14:28:18;;;;;;;5.03;3.05;;;14.30;79.60;;;;;;19812679;29;20499;-60
2022/04/18 14:38:21;;;;;;;5.30;3.10;;;14.10;81.00;;;;;;19797025;29;20077;-61
2022/04/18 14:48:25;;;;;;;4.78;3.53;;;14.10;76.50;;;;;;19835990;29;20399;-62
2022/04/18 14:58:29;;;;;;;4.20;3.10;;;13.90;79.70;;;;;;19830058;29;20055;-60
2022/04/18 15:08:32;;;;;;;4.22;3.10;;;13.40;77.40;;;;;;19793170;29;20071;-60
2022/04/18 15:18:35;;;;;;;4.68;3.10;;;12.40;80.10;;;;;;19808294;29;20039;-61
2022/04/18 15:28:38;;;;;;;5.65;3.92;;;11.80;81.50;;;;;;19812788;29;20096;-59
2022/04/18 15:38:41;;;;;;;4.88;3.50;;;11.00;82.70;;;;;;19816384;29;20112;-60
2022/04/18 15:48:45;;;;;;;4.80;3.40;;;10.60;85.30;;;;;;19882870;29;20046;-59
2022/04/18 15:58:48;;;;;;;6.30;3.97;;;10.60;85.40;;;;;;19826177;29;20626;-53
2022/04/18 16:08:52;;;;;;;4.88;4.00;;;10.60;83.90;;;;;;19806427;29;20109;-54
2022/04/18 16:18:57;;;;;;;4.18;3.47;;;10.40;84.30;;;;;;19790705;29;20051;-58
2022/04/18 16:39:21;;;;;;;7.18;4.47;;;7.70;91.10;;;;;;19835852;29;20138;-50
2022/04/18 16:49:25;;;;;;;6.07;4.10;;;6.90;92.10;;;;;;19805230;29;20043;-53
2022/04/18 16:59:27;;;;;;;8.93;4.50;;;6.40;92.90;;;;;;19877817;29;20058;-53
2022/04/18 17:09:30;;;;;;;6.93;4.15;;;6.00;94.00;;;;;;19875503;29;20091;-54
2022/04/18 17:19:34;;;;;;;9.48;5.25;;;5.70;94.70;;;;;;19875654;29;20358;-52
2022/04/18 17:29:38;;;;;;;8.20;4.80;;;5.40;95.40;;;;;;19809143;29;20039;-52
2022/04/18 17:39:41;;;;;;;9.13;5.05;;;5.10;95.90;;;;;;19799973;29;20082;-55
2022/04/18 17:49:44;;;;;;;7.50;4.80;;;4.80;96.40;;;;;;19807144;29;20127;-54
2022/04/18 17:59:47;;;;;;;7.88;4.78;;;4.40;97.10;;;;;;19798839;29;20051;-54
2022/04/18 18:09:51;;;;;;;9.02;5.43;;;4.00;97.80;;;;;;19798395;29;20077;-52
2022/04/18 18:19:55;;;;;;;10.73;5.60;;;3.70;98.40;;;;;;19802090;29;20051;-55
2022/04/18 18:29:59;;;;;;;11.02;5.95;;;3.30;99.20;;;;;;19828109;29;20145;-54
2022/04/18 18:40:08;;;;;;;11.23;5.97;;;3.00;99.70;;;;;;19834385;29;20565;-53
2022/04/18 19:00:35;;;;;;;11.07;6.55;;;2.60;99.90;;;;;;19876962;29;20619;-52
2022/04/18 19:10:39;;;;;;;10.25;5.70;;;2.60;99.90;;;;;;19838919;29;20177;-50
2022/04/18 19:31:22;;;;;;;11.05;6.05;;;2.60;99.90;;;;;;19708927;30;20075;-55
2022/04/18 19:41:27;;;;;;;23.55;11.48;;;2.50;99.90;;;;;;19726104;29;20079;-54
2022/04/18 19:51:33;;;;;;;9.55;6.30;;;2.50;99.90;;;;;;19725744;30;20087;-55
2022/04/18 20:01:36;;;;;;;10.73;6.38;;;2.60;99.90;;;;;;19764038;29;20088;-53
2022/04/18 20:11:39;;;;;;;10.02;5.85;;;2.90;99.90;;;;;;19880893;29;20038;-52
2022/04/18 20:21:45;;;;;;;10.00;5.30;;;3.00;99.90;;;;;;19853245;29;20051;-52
2022/04/18 20:31:51;;;;;;;9.63;5.93;;;2.90;99.90;;;;;;19869749;29;20470;-52
2022/04/18 20:41:55;;;;;;;12.07;5.72;;;2.80;99.90;;;;;;19875703;29;20071;-55
2022/04/18 20:51:59;;;;;;;9.25;5.63;;;2.60;99.90;;;;;;19848978;29;20183;-55
2022/04/18 21:02:02;;;;;;;11.77;5.47;;;2.40;99.90;;;;;;19877340;29;20119;-50
2022/04/18 21:12:06;;;;;;;12.27;5.68;;;2.30;99.90;;;;;;19840936;29;20122;-53
2022/04/18 21:22:09;;;;;;;11.82;5.32;;;2.00;99.90;;;;;;19843616;29;20092;-52
2022/04/18 21:32:12;;;;;;;9.60;5.30;;;1.60;99.90;;;;;;19827803;29;20066;-52
2022/04/18 21:42:16;;;;;;;8.23;5.05;;;1.60;99.90;;;;;;19875300;29;20084;-53
2022/04/18 21:52:21;;;;;;;9.40;5.88;;;1.50;99.90;;;;;;19823489;29;20127;-52
2022/04/18 22:02:24;;;;;;;8.35;5.40;;;1.30;99.90;;;;;;19804156;29;20127;-53
2022/04/18 22:12:26;;;;;;;8.23;5.22;;;1.10;99.90;;;;;;19873149;29;20120;-52
2022/04/18 22:32:50;;;;;;;9.27;5.60;;;0.80;99.90;;;;;;19814642;29;20043;-50
2022/04/18 22:42:53;;;;;;;12.93;6.05;;;0.70;99.90;;;;;;19795563;29;20500;-51
2022/04/18 22:52:56;;;;;;;10.43;6.28;;;0.60;99.90;;;;;;19797327;29;20047;-51
2022/04/18 23:02:59;;;;;;;9.85;5.95;;;0.60;99.90;;;;;;19833581;29;20071;-54
2022/04/18 23:13:03;;;;;;;8.85;5.30;;;0.50;99.90;;;;;;19801844;29;20047;-52
2022/04/18 23:23:08;;;;;;;10.05;5.00;;;0.50;99.90;;;;;;19796457;29;20096;-53
2022/04/18 23:33:11;;;;;;;9.10;5.00;;;0.60;99.90;;;;;;19798989;29;20481;-52
2022/04/18 23:43:14;;;;;;;9.32;4.60;;;0.60;99.90;;;;;;19835340;29;20042;-50
2022/04/18 23:53:26;;;;;;;8.52;4.25;;;0.60;99.90;;;;;;19864732;29;20032;-54
